Time;durP1;ratioP1;P1;durP2;ratioP2;P2;SDS_P1;SDS_P2;PMS_P1;PMS_P2;Temp;Humidity;BMP_temperature;BMP_pressure;BME280_temperature;BME280_humidity;BME280_pressure;Samples;Min_cycle;Max_cycle;Signal;HPM_P1;HPM_P2
2023/09/16 00:08:09;;;;;;;10.38;2.95;;;;;;;23.91;47.53;100981.91;20894786;28;20106;-73
2023/09/16 00:18:32;;;;;;;15.82;3.80;;;;;;;23.89;48.21;100975.72;20893010;28;20049;-73
2023/09/16 00:28:56;;;;;;;12.10;3.78;;;;;;;23.80;49.20;100972.41;20895625;28;20052;-73
2023/09/16 00:39:19;;;;;;;14.73;3.90;;;;;;;23.75;50.74;100969.00;20875594;28;20422;-74
2023/09/16 00:49:44;;;;;;;15.88;3.55;;;;;;;23.74;52.24;100967.25;20922605;28;20041;-73
2023/09/16 01:00:09;;;;;;;15.40;3.40;;;;;;;23.67;53.60;100962.13;20895625;28;20057;-73
2023/09/16 01:10:33;;;;;;;13.38;3.70;;;;;;;23.68;53.96;100963.88;20863061;28;20048;-73
2023/09/16 01:20:58;;;;;;;11.43;3.42;;;;;;;23.54;54.83;100960.78;20872340;28;20059;-73
2023/09/16 01:31:22;;;;;;;15.73;4.22;;;;;;;23.45;54.40;100961.94;20875538;28;20144;-73
2023/09/16 01:41:47;;;;;;;28.63;3.90;;;;;;;23.48;53.72;100961.00;20868085;28;20052;-74
2023/09/16 01:52:11;;;;;;;14.13;4.05;;;;;;;23.43;53.39;100958.44;20882862;28;20535;-73
2023/09/16 02:02:33;;;;;;;14.02;3.72;;;;;;;23.29;53.57;100969.69;20904364;28;20428;-73
2023/09/16 02:12:59;;;;;;;15.77;3.80;;;;;;;23.37;52.41;100959.50;20890189;28;20085;-74
2023/09/16 02:23:22;;;;;;;11.30;3.25;;;;;;;23.25;52.66;100965.31;20874337;28;20049;-73
2023/09/16 02:33:47;;;;;;;10.93;3.60;;;;;;;23.21;53.27;100973.53;20861600;28;20096;-74
2023/09/16 02:44:12;;;;;;;11.82;3.20;;;;;;;23.15;53.49;100969.25;20877986;28;20057;-74
2023/09/16 02:54:36;;;;;;;20.10;3.90;;;;;;;23.10;54.21;100987.38;20919283;28;20106;-74
2023/09/16 03:04:58;;;;;;;16.15;3.15;;;;;;;23.07;55.44;100994.66;20923141;28;20568;-73
2023/09/16 03:15:23;;;;;;;16.65;3.08;;;;;;;23.11;57.45;100991.81;20891434;28;20056;-73
2023/09/16 03:25:46;;;;;;;18.52;4.03;;;;;;;23.33;58.40;100994.69;20915189;28;20055;-73
2023/09/16 03:36:10;;;;;;;14.85;4.13;;;;;;;23.38;58.35;100995.41;20894850;28;20111;-74
2023/09/16 03:46:34;;;;;;;15.57;3.55;;;;;;;23.22;59.12;101015.72;20868824;28;20068;-73
2023/09/16 03:57:03;;;;;;;14.32;3.50;;;;;;;22.97;61.50;101002.16;20909447;28;20088;-73
2023/09/16 04:07:26;;;;;;;21.05;4.55;;;;;;;22.86;62.37;101015.94;20894727;28;20053;-73
2023/09/16 04:17:51;;;;;;;13.20;4.20;;;;;;;22.87;63.61;101019.53;20918692;28;20053;-73
2023/09/16 04:28:15;;;;;;;16.33;4.03;;;;;;;22.99;64.42;101029.91;20896912;28;20053;-73
2023/09/16 04:38:40;;;;;;;11.68;3.80;;;;;;;23.34;66.19;101036.88;20875646;28;20092;-73
2023/09/16 04:49:02;;;;;;;11.75;3.72;;;;;;;23.74;68.00;101034.66;20879882;28;20060;-73
2023/09/16 04:59:28;;;;;;;14.73;3.97;;;;;;;24.32;68.76;101053.31;20879814;28;20057;-73
2023/09/16 05:09:51;;;;;;;10.75;3.35;;;;;;;24.81;66.71;101050.53;20881282;28;20095;-74
2023/09/16 05:20:15;;;;;;;12.88;3.75;;;;;;;25.70;65.33;101043.38;20875002;28;20159;-74
2023/09/16 05:30:38;;;;;;;13.60;3.13;;;;;;;26.61;62.45;101041.13;20906861;28;20056;-73
2023/09/16 05:41:03;;;;;;;9.43;3.05;;;;;;;27.41;55.47;101046.38;20878363;28;20051;-73
2023/09/16 05:51:25;;;;;;;8.23;2.40;;;;;;;28.05;50.17;101054.84;20879664;28;20107;-73
2023/09/16 06:01:49;;;;;;;11.05;2.70;;;;;;;28.75;46.37;101059.31;20894754;28;20151;-73
2023/09/16 06:12:13;;;;;;;17.83;3.17;;;;;;;29.70;42.24;101052.91;20882232;28;20047;-73
2023/09/16 06:22:38;;;;;;;11.57;3.03;;;;;;;30.45;40.21;101065.63;20877271;28;20182;-74
2023/09/16 06:33:01;;;;;;;11.05;2.85;;;;;;;30.99;38.13;101087.66;20895843;28;20056;-73
2023/09/16 06:43:26;;;;;;;11.63;3.20;;;;;;;31.33;36.61;101081.78;20894543;28;20069;-74
2023/09/16 06:53:48;;;;;;;10.93;3.10;;;;;;;31.80;35.94;101075.03;20920035;28;20560;-73
2023/09/16 07:04:14;;;;;;;9.13;2.92;;;;;;;32.12;34.45;101091.97;20911513;28;20041;-73
2023/09/16 07:14:38;;;;;;;11.20;3.30;;;;;;;32.40;33.26;101103.66;20906775;28;20041;-72
2023/09/16 07:25:03;;;;;;;9.73;2.90;;;;;;;32.80;32.10;101103.59;20876810;28;20517;-73
2023/09/16 07:35:26;;;;;;;15.37;3.40;;;;;;;33.03;31.98;101100.06;20891276;28;20131;-75
2023/09/16 07:45:50;;;;;;;13.82;3.45;;;;;;;33.12;31.49;101091.19;20919081;28;20041;-74
2023/09/16 07:56:12;;;;;;;15.70;3.23;;;;;;;33.65;30.91;101100.03;20861937;28;20041;-75
2023/09/16 08:06:36;;;;;;;14.35;3.40;;;;;;;33.76;30.10;101091.91;20888436;28;20493;-75
2023/09/16 08:17:03;;;;;;;16.07;4.43;;;;;;;33.98;29.57;101105.72;20887467;28;20059;-72
2023/09/16 08:27:27;;;;;;;9.57;3.20;;;;;;;34.11;29.14;101119.34;20884322;28;20053;-73
2023/09/16 08:37:50;;;;;;;11.37;3.10;;;;;;;34.50;28.88;101122.75;20862857;28;20103;-74
2023/09/16 08:48:21;;;;;;;10.18;3.50;;;;;;;34.43;28.51;101127.84;20874789;28;20329;-75
2023/09/16 08:58:45;;;;;;;10.68;3.00;;;;;;;34.63;27.93;101132.63;20875652;28;20047;-74
2023/09/16 09:09:09;;;;;;;7.47;2.77;;;;;;;34.90;27.62;101118.63;20846775;28;20461;-75
2023/09/16 09:19:32;;;;;;;13.53;2.80;;;;;;;35.04;27.42;101121.13;20880901;28;20541;-74
2023/09/16 09:29:57;;;;;;;12.10;3.45;;;;;;;35.32;28.07;101108.75;20890087;28;20048;-74
2023/09/16 09:40:21;;;;;;;9.82;2.60;;;;;;;35.40;28.45;101124.63;20890621;28;20148;-74
2023/09/16 09:50:45;;;;;;;9.93;3.07;;;;;;;35.26;27.89;101109.28;20883240;28;20449;-73
2023/09/16 10:01:08;;;;;;;14.03;3.13;;;;;;;35.56;27.79;101111.38;20865751;28;20412;-74
2023/09/16 10:11:33;;;;;;;12.97;3.33;;;;;;;35.84;28.78;101104.44;20865776;28;20684;-73
2023/09/16 10:21:56;;;;;;;7.67;2.80;;;;;;;35.97;28.51;101108.75;20869869;28;20056;-73
2023/09/16 10:32:20;;;;;;;9.98;2.85;;;;;;;35.78;27.68;101107.69;20886949;28;20575;-75
2023/09/16 10:42:46;;;;;;;11.97;3.37;;;;;;;35.55;27.78;101099.50;20889993;28;20044;-73
2023/09/16 10:53:16;;;;;;;7.97;2.42;;;;;;;35.14;26.90;101099.25;20888206;28;20373;-74
2023/09/16 11:03:42;;;;;;;10.38;3.05;;;;;;;34.93;26.62;101090.03;20870532;28;20136;-75
2023/09/16 11:14:06;;;;;;;14.20;3.63;;;;;;;34.66;26.39;101091.22;20887464;28;20067;-73
2023/09/16 11:24:29;;;;;;;10.63;3.00;;;;;;;34.57;27.05;101082.88;20887785;28;20708;-74
2023/09/16 11:35:00;;;;;;;8.10;3.00;;;;;;;34.33;28.45;101077.47;20918916;28;20553;-73
2023/09/16 11:45:23;;;;;;;7.25;2.55;;;;;;;34.16;30.11;101059.56;20902654;28;20358;-74
2023/09/16 11:55:47;;;;;;;13.00;3.42;;;;;;;33.89;29.87;101059.81;20922919;28;20059;-73
2023/09/16 12:06:11;;;;;;;9.52;2.83;;;;;;;33.81;29.60;101059.53;20882927;28;20481;-74
2023/09/16 12:16:36;;;;;;;9.38;2.85;;;;;;;33.68;29.59;101050.47;20882037;28;20077;-73
2023/09/16 12:26:58;;;;;;;7.82;2.60;;;;;;;33.47;30.70;101052.13;20882330;28;20500;-74
2023/09/16 12:37:26;;;;;;;9.35;3.17;;;;;;;33.35;31.27;101048.44;20923266;28;20057;-73
2023/09/16 12:47:50;;;;;;;13.00;6.00;;;;;;;33.13;31.21;101038.19;20900593;28;20154;-74
2023/09/16 12:58:15;;;;;;;13.07;3.15;;;;;;;32.97;31.80;101043.03;20873239;28;20053;-74
2023/09/16 13:08:37;;;;;;;9.32;2.83;;;;;;;32.82;32.89;101034.09;20881965;28;20392;-74
2023/09/16 13:19:02;;;;;;;9.48;3.00;;;;;;;32.59;32.45;101026.66;20891009;28;20056;-74
2023/09/16 13:29:24;;;;;;;8.52;2.53;;;;;;;32.12;32.25;101024.53;20879466;28;20044;-75
2023/09/16 13:39:49;;;;;;;7.90;3.10;;;;;;;32.05;31.40;101017.72;20857969;28;20497;-73
2023/09/16 13:50:12;;;;;;;10.88;3.47;;;;;;;31.96;30.66;101021.13;20864097;28;20549;-74
2023/09/16 14:00:36;;;;;;;10.63;3.10;;;;;;;32.08;30.68;101020.28;20881069;28;20063;-74
2023/09/16 14:11:00;;;;;;;7.85;3.15;;;;;;;32.19;30.91;101025.88;20874619;28;20049;-74
2023/09/16 14:21:24;;;;;;;9.70;2.83;;;;;;;31.99;31.02;101027.25;20899765;28;20065;-74
2023/09/16 14:31:47;;;;;;;7.88;2.90;;;;;;;31.79;30.68;101014.09;20892359;28;20436;-74
2023/09/16 14:42:13;;;;;;;10.82;3.10;;;;;;;31.32;31.58;101013.66;20904487;28;20649;-74
2023/09/16 14:52:35;;;;;;;8.95;3.35;;;;;;;30.92;31.62;101018.13;20844475;28;20703;-73
2023/09/16 15:03:00;;;;;;;12.48;4.05;;;;;;;30.58;31.53;101008.50;20912158;28;20056;-73
2023/09/16 15:13:22;;;;;;;12.10;3.70;;;;;;;30.41;31.58;101006.81;20938304;28;20053;-74
2023/09/16 15:23:48;;;;;;;10.45;3.28;;;;;;;30.19;32.71;101006.41;20909705;28;20083;-74
2023/09/16 15:34:10;;;;;;;10.20;3.35;;;;;;;29.94;34.02;100999.75;20870032;28;20053;-73
2023/09/16 15:44:35;;;;;;;12.10;3.70;;;;;;;29.67;36.56;100991.34;20900021;28;20045;-74
2023/09/16 15:54:57;;;;;;;11.90;3.80;;;;;;;29.44;39.97;100991.88;20905608;28;20099;-74
2023/09/16 16:05:22;;;;;;;12.20;3.80;;;;;;;29.19;42.97;100989.69;20933045;28;20052;-74
2023/09/16 16:15:45;;;;;;;14.27;3.95;;;;;;;28.90;44.37;100995.91;20865503;28;20460;-73
2023/09/16 16:26:09;;;;;;;11.75;4.30;;;;;;;28.63;47.06;101006.44;20870234;28;20049;-73
2023/09/16 16:36:31;;;;;;;12.80;3.85;;;;;;;28.43;49.33;101004.81;20881642;28;20053;-73
2023/09/16 16:46:55;;;;;;;14.32;4.38;;;;;;;28.16;52.87;101022.59;20905868;28;20056;-73
2023/09/16 16:57:18;;;;;;;10.55;4.38;;;;;;;27.98;54.32;101024.44;20898179;28;20053;-73
2023/09/16 17:07:50;;;;;;;14.40;3.60;;;;;;;27.78;54.33;101027.28;20869091;28;20045;-73
2023/09/16 17:18:13;;;;;;;12.70;5.13;;;;;;;27.67;53.15;101043.25;20855811;28;20049;-74
2023/09/16 17:28:37;;;;;;;13.75;4.50;;;;;;;27.45;53.20;101048.84;20871074;28;20072;-74
2023/09/16 17:39:00;;;;;;;14.85;4.60;;;;;;;27.20;54.98;101048.28;20875932;28;20053;-73
2023/09/16 17:49:25;;;;;;;10.45;4.40;;;;;;;26.96;58.23;101067.50;20879629;28;20405;-73
2023/09/16 17:59:47;;;;;;;15.70;4.47;;;;;;;26.95;56.65;101059.44;20866086;28;20048;-74
2023/09/16 18:10:11;;;;;;;11.07;3.53;;;;;;;26.89;55.15;101078.69;20887066;28;20068;-74
2023/09/16 18:20:34;;;;;;;13.75;6.30;;;;;;;26.76;54.83;101066.66;20858237;28;20045;-73
2023/09/16 18:31:00;;;;;;;16.63;6.32;;;;;;;26.67;55.36;101080.59;20907471;28;20056;-73
2023/09/16 18:41:22;;;;;;;19.33;7.30;;;;;;;26.61;54.94;101073.63;20910334;28;20603;-73
2023/09/16 18:51:47;;;;;;;14.82;4.78;;;;;;;26.52;54.03;101079.47;20876236;28;20060;-73
2023/09/16 19:02:10;;;;;;;11.73;4.70;;;;;;;26.35;54.63;101082.06;20891386;28;20415;-72
2023/09/16 19:12:34;;;;;;;14.90;4.63;;;;;;;26.14;55.50;101086.56;20902329;28;20099;-73
2023/09/16 19:22:56;;;;;;;15.85;5.97;;;;;;;25.86;56.10;101086.88;20894808;28;20048;-73
2023/09/16 19:33:23;;;;;;;12.85;5.22;;;;;;;25.66;57.25;101085.03;20886841;28;20045;-73
2023/09/16 19:43:45;;;;;;;12.23;5.70;;;;;;;25.42;57.18;101089.56;20909164;28;20045;-73
2023/09/16 19:54:10;;;;;;;15.18;4.22;;;;;;;25.37;55.94;101096.97;20898899;28;20094;-73
2023/09/16 20:04:32;;;;;;;12.65;3.80;;;;;;;25.41;52.85;101092.31;20902153;28;20056;-73
2023/09/16 20:14:56;;;;;;;12.38;4.10;;;;;;;25.42;51.33;101104.91;20876488;28;20153;-74
2023/09/16 20:25:19;;;;;;;16.27;3.58;;;;;;;25.35;51.26;101101.56;20925002;28;20076;-74
2023/09/16 20:35:44;;;;;;;9.20;3.80;;;;;;;25.38;50.31;101077.13;20915306;28;20136;-73
2023/09/16 20:46:11;;;;;;;12.23;4.17;;;;;;;25.44;51.03;101081.41;20897834;28;20052;-73
2023/09/16 20:56:36;;;;;;;13.55;4.38;;;;;;;25.51;51.38;101090.13;20889732;28;20045;-74
2023/09/16 21:06:58;;;;;;;13.48;3.95;;;;;;;25.55;54.42;101075.53;20856051;28;20056;-74
2023/09/16 21:17:24;;;;;;;13.07;4.57;;;;;;;25.57;61.60;101070.94;20883705;28;20059;-74
2023/09/16 21:27:46;;;;;;;13.77;4.25;;;;;;;25.53;66.14;101070.22;20921371;28;20045;-73
2023/09/16 21:38:10;;;;;;;14.95;4.57;;;;;;;25.46;67.91;101062.41;20870023;28;20121;-74
2023/09/16 21:48:33;;;;;;;17.50;4.55;;;;;;;25.40;69.07;101060.84;20852855;28;20056;-74
2023/09/16 21:58:57;;;;;;;14.95;4.78;;;;;;;25.29;69.97;101060.38;20870231;28;20103;-74
2023/09/16 22:09:20;;;;;;;10.10;4.20;;;;;;;25.20;68.99;101049.97;20882989;28;20049;-73
2023/09/16 22:19:44;;;;;;;12.23;4.10;;;;;;;25.06;69.66;101042.41;20907162;28;20052;-74
2023/09/16 22:30:09;;;;;;;12.00;4.15;;;;;;;24.93;70.52;101033.00;20888827;28;20057;-73
2023/09/16 22:40:33;;;;;;;12.05;4.30;;;;;;;24.90;71.06;101041.22;20894933;28;20052;-73
2023/09/16 22:50:56;;;;;;;9.27;4.15;;;;;;;24.87;70.33;101038.63;20892494;28;20053;-73
2023/09/16 23:01:22;;;;;;;10.38;3.90;;;;;;;24.89;68.88;101025.91;20879978;28;20048;-73
2023/09/16 23:11:44;;;;;;;9.55;3.90;;;;;;;24.81;69.77;101025.38;20874783;28;20136;-74
2023/09/16 23:22:09;;;;;;;9.93;3.88;;;;;;;24.79;70.06;101011.03;20916078;28;20045;-74
2023/09/16 23:32:31;;;;;;;11.18;4.25;;;;;;;24.68;69.81;101007.88;20897827;28;20056;-74
2023/09/16 23:42:56;;;;;;;13.50;4.00;;;;;;;24.60;69.70;101006.34;20890224;28;20560;-74
2023/09/16 23:53:18;;;;;;;9.70;3.83;;;;;;;24.63;67.38;101003.50;20901633;28;20130;-74
